sensor_id;sensor_type;location;lat;lon;timestamp;P1;durP1;ratioP1;P2;durP2;ratioP2
74543;SDS011;63016;55.030;38.710;2023-02-28T00:00:17;8.50;;;2.80;;
74543;SDS011;63016;55.030;38.710;2023-02-28T00:02:44;5.85;;;2.47;;
74543;SDS011;63016;55.030;38.710;2023-02-28T00:05:11;6.47;;;2.55;;
74543;SDS011;63016;55.030;38.710;2023-02-28T00:07:38;6.53;;;2.28;;
74543;SDS011;63016;55.030;38.710;2023-02-28T00:10:04;7.45;;;2.83;;
74543;SDS011;63016;55.030;38.710;2023-02-28T00:12:33;5.97;;;2.20;;
74543;SDS011;63016;55.030;38.710;2023-02-28T00:14:59;5.70;;;2.38;;
74543;SDS011;63016;55.030;38.710;2023-02-28T00:17:25;6.25;;;2.95;;
74543;SDS011;63016;55.030;38.710;2023-02-28T00:19:50;5.03;;;2.55;;
74543;SDS011;63016;55.030;38.710;2023-02-28T00:22:17;7.97;;;3.00;;
74543;SDS011;63016;55.030;38.710;2023-02-28T00:24:44;7.72;;;3.20;;
74543;SDS011;63016;55.030;38.710;2023-02-28T00:27:10;7.15;;;2.88;;
74543;SDS011;63016;55.030;38.710;2023-02-28T00:29:36;7.18;;;3.03;;
74543;SDS011;63016;55.030;38.710;2023-02-28T00:32:02;7.38;;;3.15;;
74543;SDS011;63016;55.030;38.710;2023-02-28T00:34:28;6.18;;;3.00;;
74543;SDS011;63016;55.030;38.710;2023-02-28T00:36:54;5.82;;;2.85;;
74543;SDS011;63016;55.030;38.710;2023-02-28T00:39:19;8.98;;;3.20;;
74543;SDS011;63016;55.030;38.710;2023-02-28T00:41:45;6.80;;;2.72;;
74543;SDS011;63016;55.030;38.710;2023-02-28T00:44:10;6.43;;;2.85;;
74543;SDS011;63016;55.030;38.710;2023-02-28T00:46:36;8.40;;;3.08;;
74543;SDS011;63016;55.030;38.710;2023-02-28T00:49:01;8.05;;;3.47;;
74543;SDS011;63016;55.030;38.710;2023-02-28T00:51:27;7.45;;;3.00;;
74543;SDS011;63016;55.030;38.710;2023-02-28T00:53:53;8.77;;;3.45;;
74543;SDS011;63016;55.030;38.710;2023-02-28T00:56:19;8.57;;;3.50;;
74543;SDS011;63016;55.030;38.710;2023-02-28T00:58:44;7.65;;;3.05;;
74543;SDS011;63016;55.030;38.710;2023-02-28T01:01:10;7.30;;;3.03;;
74543;SDS011;63016;55.030;38.710;2023-02-28T01:03:36;5.80;;;2.78;;
74543;SDS011;63016;55.030;38.710;2023-02-28T01:06:01;6.97;;;3.45;;
74543;SDS011;63016;55.030;38.710;2023-02-28T01:08:27;6.97;;;3.00;;
74543;SDS011;63016;55.030;38.710;2023-02-28T01:10:53;8.48;;;2.90;;
74543;SDS011;63016;55.030;38.710;2023-02-28T01:13:19;8.30;;;2.95;;
74543;SDS011;63016;55.030;38.710;2023-02-28T01:15:55;6.10;;;2.55;;
74543;SDS011;63016;55.030;38.710;2023-02-28T01:18:22;8.48;;;2.85;;
74543;SDS011;63016;55.030;38.710;2023-02-28T01:20:48;6.90;;;2.70;;
74543;SDS011;63016;55.030;38.710;2023-02-28T01:23:13;6.78;;;2.85;;
74543;SDS011;63016;55.030;38.710;2023-02-28T01:25:39;6.57;;;2.92;;
74543;SDS011;63016;55.030;38.710;2023-02-28T01:28:05;7.18;;;2.70;;
74543;SDS011;63016;55.030;38.710;2023-02-28T01:30:31;7.95;;;2.97;;
74543;SDS011;63016;55.030;38.710;2023-02-28T01:32:57;5.28;;;2.63;;
74543;SDS011;63016;55.030;38.710;2023-02-28T01:35:22;6.10;;;2.88;;
74543;SDS011;63016;55.030;38.710;2023-02-28T01:37:48;7.35;;;2.97;;
74543;SDS011;63016;55.030;38.710;2023-02-28T01:40:13;6.32;;;2.97;;
74543;SDS011;63016;55.030;38.710;2023-02-28T01:42:39;4.82;;;2.38;;
74543;SDS011;63016;55.030;38.710;2023-02-28T01:47:50;7.28;;;2.90;;
74543;SDS011;63016;55.030;38.710;2023-02-28T01:50:21;4.57;;;2.42;;
74543;SDS011;63016;55.030;38.710;2023-02-28T01:52:50;9.55;;;2.90;;
74543;SDS011;63016;55.030;38.710;2023-02-28T01:55:18;7.32;;;3.25;;
74543;SDS011;63016;55.030;38.710;2023-02-28T01:57:49;5.18;;;2.60;;
74543;SDS011;63016;55.030;38.710;2023-02-28T02:00:18;5.88;;;2.75;;
74543;SDS011;63016;55.030;38.710;2023-02-28T02:02:48;6.30;;;2.80;;
74543;SDS011;63016;55.030;38.710;2023-02-28T02:05:21;6.35;;;2.40;;
74543;SDS011;63016;55.030;38.710;2023-02-28T02:07:50;6.70;;;2.63;;
74543;SDS011;63016;55.030;38.710;2023-02-28T02:10:20;5.40;;;2.30;;
74543;SDS011;63016;55.030;38.710;2023-02-28T02:32:10;6.05;;;2.30;;
74543;SDS011;63016;55.030;38.710;2023-02-28T02:40:16;5.57;;;2.22;;
74543;SDS011;63016;55.030;38.710;2023-02-28T02:42:55;6.18;;;2.20;;
74543;SDS011;63016;55.030;38.710;2023-02-28T02:48:11;5.95;;;2.65;;
74543;SDS011;63016;55.030;38.710;2023-02-28T02:50:45;6.32;;;2.33;;
74543;SDS011;63016;55.030;38.710;2023-02-28T02:53:14;6.43;;;2.55;;
74543;SDS011;63016;55.030;38.710;2023-02-28T02:55:44;5.50;;;2.10;;
74543;SDS011;63016;55.030;38.710;2023-02-28T02:58:18;6.80;;;2.42;;
74543;SDS011;63016;55.030;38.710;2023-02-28T03:00:52;6.32;;;2.50;;
74543;SDS011;63016;55.030;38.710;2023-02-28T03:03:21;3.88;;;1.90;;
74543;SDS011;63016;55.030;38.710;2023-02-28T03:05:53;5.22;;;2.30;;
74543;SDS011;63016;55.030;38.710;2023-02-28T03:08:20;5.15;;;2.50;;
74543;SDS011;63016;55.030;38.710;2023-02-28T03:10:48;5.53;;;2.47;;
74543;SDS011;63016;55.030;38.710;2023-02-28T03:27:11;6.00;;;2.55;;
74543;SDS011;63016;55.030;38.710;2023-02-28T03:35:39;8.02;;;2.92;;
74543;SDS011;63016;55.030;38.710;2023-02-28T03:38:20;9.60;;;3.20;;
74543;SDS011;63016;55.030;38.710;2023-02-28T03:40:48;6.80;;;2.92;;
74543;SDS011;63016;55.030;38.710;2023-02-28T03:43:22;7.88;;;2.88;;
74543;SDS011;63016;55.030;38.710;2023-02-28T03:45:53;6.78;;;3.13;;
74543;SDS011;63016;55.030;38.710;2023-02-28T03:50:47;8.00;;;3.30;;
74543;SDS011;63016;55.030;38.710;2023-02-28T03:53:21;6.90;;;2.83;;
74543;SDS011;63016;55.030;38.710;2023-02-28T03:55:53;7.22;;;3.00;;
74543;SDS011;63016;55.030;38.710;2023-02-28T04:00:54;6.68;;;2.92;;
74543;SDS011;63016;55.030;38.710;2023-02-28T04:03:23;8.18;;;3.17;;
74543;SDS011;63016;55.030;38.710;2023-02-28T04:05:53;7.28;;;3.03;;
74543;SDS011;63016;55.030;38.710;2023-02-28T04:08:20;8.43;;;3.15;;
74543;SDS011;63016;55.030;38.710;2023-02-28T04:10:49;6.72;;;3.45;;
74543;SDS011;63016;55.030;38.710;2023-02-28T04:13:20;8.00;;;2.85;;
74543;SDS011;63016;55.030;38.710;2023-02-28T04:15:46;6.78;;;3.00;;
74543;SDS011;63016;55.030;38.710;2023-02-28T04:18:11;7.05;;;3.53;;
74543;SDS011;63016;55.030;38.710;2023-02-28T04:20:37;8.50;;;3.20;;
74543;SDS011;63016;55.030;38.710;2023-02-28T04:23:02;7.38;;;3.00;;
74543;SDS011;63016;55.030;38.710;2023-02-28T04:25:28;8.50;;;3.30;;
74543;SDS011;63016;55.030;38.710;2023-02-28T04:27:53;7.97;;;3.30;;
74543;SDS011;63016;55.030;38.710;2023-02-28T04:30:19;7.30;;;2.88;;
74543;SDS011;63016;55.030;38.710;2023-02-28T04:32:44;8.30;;;3.40;;
74543;SDS011;63016;55.030;38.710;2023-02-28T04:35:10;8.63;;;3.95;;
74543;SDS011;63016;55.030;38.710;2023-02-28T04:37:35;8.15;;;3.22;;
74543;SDS011;63016;55.030;38.710;2023-02-28T04:40:02;7.65;;;3.15;;
74543;SDS011;63016;55.030;38.710;2023-02-28T04:42:28;8.73;;;3.25;;
74543;SDS011;63016;55.030;38.710;2023-02-28T04:45:00;7.53;;;2.83;;
74543;SDS011;63016;55.030;38.710;2023-02-28T04:47:27;10.70;;;2.95;;
74543;SDS011;63016;55.030;38.710;2023-02-28T04:49:52;7.38;;;3.50;;
74543;SDS011;63016;55.030;38.710;2023-02-28T04:52:17;7.88;;;3.17;;
74543;SDS011;63016;55.030;38.710;2023-02-28T04:54:43;6.32;;;2.90;;
74543;SDS011;63016;55.030;38.710;2023-02-28T04:57:09;8.07;;;3.58;;
74543;SDS011;63016;55.030;38.710;2023-02-28T04:59:34;6.80;;;3.33;;
74543;SDS011;63016;55.030;38.710;2023-02-28T05:01:59;8.18;;;2.92;;
74543;SDS011;63016;55.030;38.710;2023-02-28T05:04:25;7.18;;;3.17;;
74543;SDS011;63016;55.030;38.710;2023-02-28T05:06:50;6.47;;;2.95;;
74543;SDS011;63016;55.030;38.710;2023-02-28T05:09:16;6.32;;;2.83;;
74543;SDS011;63016;55.030;38.710;2023-02-28T05:11:41;7.75;;;2.60;;
74543;SDS011;63016;55.030;38.710;2023-02-28T05:14:11;5.80;;;2.95;;
74543;SDS011;63016;55.030;38.710;2023-02-28T05:16:38;5.95;;;2.63;;
74543;SDS011;63016;55.030;38.710;2023-02-28T05:19:03;7.53;;;2.83;;
74543;SDS011;63016;55.030;38.710;2023-02-28T05:21:36;8.88;;;2.88;;
74543;SDS011;63016;55.030;38.710;2023-02-28T05:24:05;6.85;;;2.90;;
74543;SDS011;63016;55.030;38.710;2023-02-28T05:26:36;6.30;;;2.72;;
74543;SDS011;63016;55.030;38.710;2023-02-28T05:29:03;6.45;;;2.88;;
74543;SDS011;63016;55.030;38.710;2023-02-28T05:31:30;7.30;;;2.92;;
74543;SDS011;63016;55.030;38.710;2023-02-28T05:33:55;6.03;;;2.53;;
74543;SDS011;63016;55.030;38.710;2023-02-28T05:36:21;7.13;;;3.08;;
74543;SDS011;63016;55.030;38.710;2023-02-28T05:38:48;6.18;;;2.30;;
74543;SDS011;63016;55.030;38.710;2023-02-28T05:41:14;7.53;;;3.20;;
74543;SDS011;63016;55.030;38.710;2023-02-28T05:43:40;7.68;;;2.50;;
74543;SDS011;63016;55.030;38.710;2023-02-28T05:46:06;5.90;;;2.30;;
74543;SDS011;63016;55.030;38.710;2023-02-28T05:48:34;5.40;;;2.33;;
74543;SDS011;63016;55.030;38.710;2023-02-28T05:51:01;6.28;;;2.50;;
74543;SDS011;63016;55.030;38.710;2023-02-28T05:53:27;4.95;;;2.28;;
74543;SDS011;63016;55.030;38.710;2023-02-28T05:55:53;6.28;;;2.45;;
74543;SDS011;63016;55.030;38.710;2023-02-28T05:58:19;6.80;;;2.75;;
74543;SDS011;63016;55.030;38.710;2023-02-28T06:00:46;7.50;;;2.70;;
74543;SDS011;63016;55.030;38.710;2023-02-28T06:03:12;5.28;;;2.42;;
74543;SDS011;63016;55.030;38.710;2023-02-28T06:05:37;5.97;;;2.30;;
74543;SDS011;63016;55.030;38.710;2023-02-28T06:08:03;7.15;;;2.63;;
74543;SDS011;63016;55.030;38.710;2023-02-28T06:10:32;6.15;;;2.63;;
74543;SDS011;63016;55.030;38.710;2023-02-28T06:13:01;5.38;;;2.60;;
74543;SDS011;63016;55.030;38.710;2023-02-28T06:15:28;5.97;;;2.60;;
74543;SDS011;63016;55.030;38.710;2023-02-28T06:17:54;5.50;;;2.35;;
74543;SDS011;63016;55.030;38.710;2023-02-28T06:20:24;6.10;;;2.80;;
74543;SDS011;63016;55.030;38.710;2023-02-28T06:22:54;5.65;;;2.55;;
74543;SDS011;63016;55.030;38.710;2023-02-28T06:25:21;5.75;;;2.42;;
74543;SDS011;63016;55.030;38.710;2023-02-28T06:27:46;6.20;;;2.47;;
74543;SDS011;63016;55.030;38.710;2023-02-28T06:30:13;4.78;;;1.90;;
74543;SDS011;63016;55.030;38.710;2023-02-28T06:32:39;5.07;;;2.40;;
74543;SDS011;63016;55.030;38.710;2023-02-28T06:35:04;7.25;;;2.75;;
74543;SDS011;63016;55.030;38.710;2023-02-28T06:37:30;6.05;;;2.35;;
74543;SDS011;63016;55.030;38.710;2023-02-28T06:39:57;6.35;;;2.38;;
74543;SDS011;63016;55.030;38.710;2023-02-28T06:42:23;6.78;;;2.47;;
74543;SDS011;63016;55.030;38.710;2023-02-28T06:44:56;6.38;;;2.33;;
74543;SDS011;63016;55.030;38.710;2023-02-28T06:47:22;5.55;;;2.25;;
74543;SDS011;63016;55.030;38.710;2023-02-28T06:49:48;6.43;;;2.60;;
74543;SDS011;63016;55.030;38.710;2023-02-28T06:52:14;5.07;;;2.40;;
74543;SDS011;63016;55.030;38.710;2023-02-28T06:54:40;5.10;;;2.72;;
74543;SDS011;63016;55.030;38.710;2023-02-28T06:57:06;4.53;;;2.17;;
74543;SDS011;63016;55.030;38.710;2023-02-28T06:59:31;4.18;;;2.10;;
74543;SDS011;63016;55.030;38.710;2023-02-28T07:01:57;3.88;;;1.88;;
74543;SDS011;63016;55.030;38.710;2023-02-28T07:04:22;4.00;;;2.30;;
74543;SDS011;63016;55.030;38.710;2023-02-28T07:06:48;6.25;;;2.15;;
74543;SDS011;63016;55.030;38.710;2023-02-28T07:09:14;6.22;;;2.53;;
74543;SDS011;63016;55.030;38.710;2023-02-28T07:11:40;4.45;;;2.15;;
74543;SDS011;63016;55.030;38.710;2023-02-28T07:14:06;5.38;;;2.35;;
74543;SDS011;63016;55.030;38.710;2023-02-28T07:16:32;5.70;;;2.30;;
74543;SDS011;63016;55.030;38.710;2023-02-28T07:18:58;4.53;;;1.85;;
74543;SDS011;63016;55.030;38.710;2023-02-28T07:21:23;5.45;;;2.15;;
74543;SDS011;63016;55.030;38.710;2023-02-28T07:23:49;4.10;;;1.70;;
74543;SDS011;63016;55.030;38.710;2023-02-28T07:26:17;4.30;;;2.00;;
74543;SDS011;63016;55.030;38.710;2023-02-28T07:28:44;5.13;;;1.88;;
74543;SDS011;63016;55.030;38.710;2023-02-28T07:31:11;5.45;;;2.17;;
74543;SDS011;63016;55.030;38.710;2023-02-28T07:33:39;4.18;;;1.80;;
74543;SDS011;63016;55.030;38.710;2023-02-28T07:36:06;3.78;;;1.88;;
74543;SDS011;63016;55.030;38.710;2023-02-28T07:38:41;3.28;;;1.77;;
74543;SDS011;63016;55.030;38.710;2023-02-28T07:41:08;3.42;;;1.92;;
74543;SDS011;63016;55.030;38.710;2023-02-28T07:43:34;4.40;;;2.13;;
74543;SDS011;63016;55.030;38.710;2023-02-28T07:46:04;4.70;;;2.15;;
74543;SDS011;63016;55.030;38.710;2023-02-28T07:48:31;5.10;;;2.38;;
74543;SDS011;63016;55.030;38.710;2023-02-28T07:50:57;4.45;;;2.05;;
74543;SDS011;63016;55.030;38.710;2023-02-28T07:53:23;3.00;;;1.58;;
74543;SDS011;63016;55.030;38.710;2023-02-28T07:55:48;5.03;;;2.08;;
74543;SDS011;63016;55.030;38.710;2023-02-28T07:58:14;4.75;;;1.70;;
74543;SDS011;63016;55.030;38.710;2023-02-28T08:00:39;5.25;;;2.15;;
74543;SDS011;63016;55.030;38.710;2023-02-28T08:03:05;4.60;;;1.95;;
74543;SDS011;63016;55.030;38.710;2023-02-28T08:05:30;4.28;;;1.95;;
74543;SDS011;63016;55.030;38.710;2023-02-28T08:07:56;5.53;;;2.08;;
74543;SDS011;63016;55.030;38.710;2023-02-28T08:10:22;4.43;;;2.30;;
74543;SDS011;63016;55.030;38.710;2023-02-28T08:12:48;4.32;;;1.70;;
74543;SDS011;63016;55.030;38.710;2023-02-28T08:15:15;6.82;;;2.40;;
74543;SDS011;63016;55.030;38.710;2023-02-28T08:17:40;4.40;;;1.90;;
74543;SDS011;63016;55.030;38.710;2023-02-28T08:20:06;4.45;;;1.80;;
74543;SDS011;63016;55.030;38.710;2023-02-28T08:22:32;4.47;;;2.10;;
74543;SDS011;63016;55.030;38.710;2023-02-28T08:24:57;9.70;;;1.92;;
74543;SDS011;63016;55.030;38.710;2023-02-28T08:27:23;5.13;;;2.30;;
74543;SDS011;63016;55.030;38.710;2023-02-28T08:29:48;5.05;;;2.67;;
74543;SDS011;63016;55.030;38.710;2023-02-28T08:32:14;4.05;;;2.20;;
74543;SDS011;63016;55.030;38.710;2023-02-28T08:34:39;5.95;;;2.15;;
74543;SDS011;63016;55.030;38.710;2023-02-28T08:37:05;6.28;;;2.22;;
74543;SDS011;63016;55.030;38.710;2023-02-28T08:39:33;4.88;;;2.00;;
74543;SDS011;63016;55.030;38.710;2023-02-28T08:42:00;5.07;;;2.53;;
74543;SDS011;63016;55.030;38.710;2023-02-28T08:44:25;4.47;;;2.55;;
74543;SDS011;63016;55.030;38.710;2023-02-28T08:46:52;4.13;;;2.10;;
74543;SDS011;63016;55.030;38.710;2023-02-28T08:49:17;4.43;;;2.22;;
74543;SDS011;63016;55.030;38.710;2023-02-28T08:51:43;5.20;;;1.83;;
74543;SDS011;63016;55.030;38.710;2023-02-28T08:54:09;5.63;;;2.47;;
74543;SDS011;63016;55.030;38.710;2023-02-28T08:56:37;4.75;;;2.53;;
74543;SDS011;63016;55.030;38.710;2023-02-28T08:59:03;5.82;;;2.40;;
74543;SDS011;63016;55.030;38.710;2023-02-28T09:01:29;4.35;;;2.17;;
74543;SDS011;63016;55.030;38.710;2023-02-28T09:03:56;3.05;;;1.67;;
74543;SDS011;63016;55.030;38.710;2023-02-28T09:06:23;3.75;;;2.35;;
74543;SDS011;63016;55.030;38.710;2023-02-28T09:08:51;4.72;;;2.08;;
74543;SDS011;63016;55.030;38.710;2023-02-28T09:11:17;5.70;;;2.38;;
74543;SDS011;63016;55.030;38.710;2023-02-28T09:13:44;3.45;;;2.08;;
74543;SDS011;63016;55.030;38.710;2023-02-28T09:16:11;3.75;;;1.98;;
74543;SDS011;63016;55.030;38.710;2023-02-28T09:18:39;3.97;;;1.65;;
74543;SDS011;63016;55.030;38.710;2023-02-28T09:21:05;4.40;;;2.33;;
74543;SDS011;63016;55.030;38.710;2023-02-28T09:23:31;5.05;;;2.40;;
74543;SDS011;63016;55.030;38.710;2023-02-28T09:25:57;4.85;;;2.50;;
74543;SDS011;63016;55.030;38.710;2023-02-28T09:28:22;4.22;;;2.20;;
74543;SDS011;63016;55.030;38.710;2023-02-28T09:30:49;5.72;;;2.38;;
74543;SDS011;63016;55.030;38.710;2023-02-28T09:33:16;3.85;;;1.88;;
74543;SDS011;63016;55.030;38.710;2023-02-28T09:35:42;4.47;;;2.05;;
74543;SDS011;63016;55.030;38.710;2023-02-28T09:38:08;4.18;;;1.67;;
74543;SDS011;63016;55.030;38.710;2023-02-28T09:40:35;4.57;;;2.30;;
74543;SDS011;63016;55.030;38.710;2023-02-28T09:43:03;3.13;;;2.00;;
74543;SDS011;63016;55.030;38.710;2023-02-28T09:45:36;4.38;;;1.98;;
74543;SDS011;63016;55.030;38.710;2023-02-28T09:48:12;5.25;;;2.50;;
74543;SDS011;63016;55.030;38.710;2023-02-28T09:50:43;4.03;;;2.30;;
74543;SDS011;63016;55.030;38.710;2023-02-28T09:55:53;5.20;;;2.10;;
74543;SDS011;63016;55.030;38.710;2023-02-28T09:58:28;3.95;;;1.88;;
74543;SDS011;63016;55.030;38.710;2023-02-28T10:06:18;3.38;;;1.70;;
74543;SDS011;63016;55.030;38.710;2023-02-28T10:09:07;4.72;;;1.70;;
74543;SDS011;63016;55.030;38.710;2023-02-28T10:11:50;3.72;;;1.63;;
74543;SDS011;63016;55.030;38.710;2023-02-28T10:14:18;3.35;;;1.50;;
74543;SDS011;63016;55.030;38.710;2023-02-28T10:19:31;4.22;;;1.70;;
74543;SDS011;63016;55.030;38.710;2023-02-28T10:22:01;3.17;;;1.50;;
74543;SDS011;63016;55.030;38.710;2023-02-28T10:24:38;3.67;;;1.83;;
74543;SDS011;63016;55.030;38.710;2023-02-28T10:27:17;3.20;;;1.60;;
74543;SDS011;63016;55.030;38.710;2023-02-28T10:29:54;3.38;;;1.73;;
74543;SDS011;63016;55.030;38.710;2023-02-28T10:32:26;2.88;;;1.60;;
74543;SDS011;63016;55.030;38.710;2023-02-28T10:35:07;2.20;;;1.30;;
74543;SDS011;63016;55.030;38.710;2023-02-28T10:37:39;3.33;;;1.80;;
74543;SDS011;63016;55.030;38.710;2023-02-28T10:40:57;3.03;;;1.70;;
74543;SDS011;63016;55.030;38.710;2023-02-28T10:45:38;3.22;;;1.70;;
74543;SDS011;63016;55.030;38.710;2023-02-28T10:55:57;4.43;;;1.88;;
74543;SDS011;63016;55.030;38.710;2023-02-28T10:58:49;3.53;;;1.42;;
74543;SDS011;63016;55.030;38.710;2023-02-28T11:01:24;4.35;;;1.67;;
74543;SDS011;63016;55.030;38.710;2023-02-28T11:04:48;4.82;;;1.40;;
74543;SDS011;63016;55.030;38.710;2023-02-28T11:07:01;3.45;;;1.60;;
74543;SDS011;63016;55.030;38.710;2023-02-28T11:11:57;4.90;;;1.80;;
74543;SDS011;63016;55.030;38.710;2023-02-28T11:14:25;4.13;;;1.50;;
74543;SDS011;63016;55.030;38.710;2023-02-28T11:16:52;3.08;;;1.52;;
74543;SDS011;63016;55.030;38.710;2023-02-28T11:19:26;3.22;;;1.90;;
74543;SDS011;63016;55.030;38.710;2023-02-28T11:21:58;3.55;;;1.60;;
74543;SDS011;63016;55.030;38.710;2023-02-28T11:24:42;5.35;;;1.60;;
74543;SDS011;63016;55.030;38.710;2023-02-28T11:27:24;3.05;;;1.65;;
74543;SDS011;63016;55.030;38.710;2023-02-28T11:29:56;3.53;;;1.50;;
74543;SDS011;63016;55.030;38.710;2023-02-28T11:32:23;4.05;;;1.90;;
74543;SDS011;63016;55.030;38.710;2023-02-28T11:37:34;3.50;;;1.88;;
74543;SDS011;63016;55.030;38.710;2023-02-28T11:40:01;3.58;;;1.50;;
74543;SDS011;63016;55.030;38.710;2023-02-28T11:42:38;3.05;;;1.77;;
74543;SDS011;63016;55.030;38.710;2023-02-28T11:54:21;3.55;;;1.67;;
74543;SDS011;63016;55.030;38.710;2023-02-28T12:08:04;2.70;;;1.58;;
74543;SDS011;63016;55.030;38.710;2023-02-28T12:16:14;4.82;;;1.80;;
74543;SDS011;63016;55.030;38.710;2023-02-28T12:27:13;2.22;;;1.27;;
74543;SDS011;63016;55.030;38.710;2023-02-28T12:29:52;4.95;;;1.80;;
74543;SDS011;63016;55.030;38.710;2023-02-28T12:34:54;3.20;;;1.75;;
74543;SDS011;63016;55.030;38.710;2023-02-28T12:37:34;3.85;;;1.95;;
74543;SDS011;63016;55.030;38.710;2023-02-28T12:40:12;5.07;;;2.10;;
74543;SDS011;63016;55.030;38.710;2023-02-28T12:42:45;3.75;;;2.08;;
74543;SDS011;63016;55.030;38.710;2023-02-28T12:45:19;3.28;;;1.55;;
74543;SDS011;63016;55.030;38.710;2023-02-28T12:47:49;5.18;;;1.77;;
74543;SDS011;63016;55.030;38.710;2023-02-28T12:50:20;4.30;;;2.00;;
74543;SDS011;63016;55.030;38.710;2023-02-28T13:00:51;4.78;;;1.67;;
74543;SDS011;63016;55.030;38.710;2023-02-28T13:11:46;4.55;;;1.98;;
74543;SDS011;63016;55.030;38.710;2023-02-28T13:17:19;3.65;;;1.92;;
74543;SDS011;63016;55.030;38.710;2023-02-28T13:28:12;3.85;;;1.75;;
74543;SDS011;63016;55.030;38.710;2023-02-28T13:31:01;5.88;;;1.50;;
74543;SDS011;63016;55.030;38.710;2023-02-28T13:33:29;4.38;;;1.73;;
74543;SDS011;63016;55.030;38.710;2023-02-28T13:38:33;3.10;;;1.50;;
74543;SDS011;63016;55.030;38.710;2023-02-28T13:44:04;4.55;;;2.00;;
74543;SDS011;63016;55.030;38.710;2023-02-28T13:51:44;6.28;;;1.88;;
74543;SDS011;63016;55.030;38.710;2023-02-28T13:54:34;5.10;;;1.85;;
74543;SDS011;63016;55.030;38.710;2023-02-28T13:59:47;4.45;;;1.98;;
74543;SDS011;63016;55.030;38.710;2023-02-28T14:05:18;4.03;;;1.48;;
74543;SDS011;63016;55.030;38.710;2023-02-28T14:07:51;4.97;;;1.58;;
74543;SDS011;63016;55.030;38.710;2023-02-28T14:10:30;5.05;;;2.00;;
74543;SDS011;63016;55.030;38.710;2023-02-28T14:13:11;5.50;;;1.60;;
74543;SDS011;63016;55.030;38.710;2023-02-28T14:15:46;3.35;;;1.83;;
74543;SDS011;63016;55.030;38.710;2023-02-28T14:21:22;2.55;;;1.50;;
74543;SDS011;63016;55.030;38.710;2023-02-28T14:36:08;2.78;;;1.27;;
74543;SDS011;63016;55.030;38.710;2023-02-28T14:38:52;3.38;;;1.40;;
74543;SDS011;63016;55.030;38.710;2023-02-28T14:41:29;3.77;;;1.50;;
74543;SDS011;63016;55.030;38.710;2023-02-28T14:43:57;3.97;;;1.30;;
74543;SDS011;63016;55.030;38.710;2023-02-28T14:46:30;2.95;;;1.30;;
74543;SDS011;63016;55.030;38.710;2023-02-28T14:49:03;2.85;;;1.60;;
74543;SDS011;63016;55.030;38.710;2023-02-28T14:51:31;2.88;;;1.33;;
74543;SDS011;63016;55.030;38.710;2023-02-28T14:53:59;2.95;;;1.50;;
74543;SDS011;63016;55.030;38.710;2023-02-28T14:56:37;3.67;;;1.52;;
74543;SDS011;63016;55.030;38.710;2023-02-28T14:59:04;2.78;;;1.48;;
74543;SDS011;63016;55.030;38.710;2023-02-28T15:01:31;3.10;;;1.38;;
74543;SDS011;63016;55.030;38.710;2023-02-28T15:04:04;3.22;;;1.65;;
74543;SDS011;63016;55.030;38.710;2023-02-28T15:06:31;4.33;;;1.50;;
74543;SDS011;63016;55.030;38.710;2023-02-28T15:09:10;2.80;;;1.40;;
74543;SDS011;63016;55.030;38.710;2023-02-28T15:11:40;3.17;;;1.30;;
74543;SDS011;63016;55.030;38.710;2023-02-28T15:14:06;2.00;;;1.20;;
74543;SDS011;63016;55.030;38.710;2023-02-28T15:16:39;3.15;;;1.75;;
74543;SDS011;63016;55.030;38.710;2023-02-28T15:19:16;3.08;;;1.58;;
74543;SDS011;63016;55.030;38.710;2023-02-28T15:21:52;2.90;;;1.45;;
74543;SDS011;63016;55.030;38.710;2023-02-28T15:24:42;3.10;;;1.50;;
74543;SDS011;63016;55.030;38.710;2023-02-28T15:27:14;3.90;;;1.67;;
74543;SDS011;63016;55.030;38.710;2023-02-28T15:29:51;3.90;;;1.58;;
74543;SDS011;63016;55.030;38.710;2023-02-28T15:32:24;5.03;;;1.85;;
74543;SDS011;63016;55.030;38.710;2023-02-28T15:37:26;4.32;;;1.55;;
74543;SDS011;63016;55.030;38.710;2023-02-28T15:39:56;3.80;;;1.70;;
74543;SDS011;63016;55.030;38.710;2023-02-28T15:42:27;3.33;;;1.77;;
74543;SDS011;63016;55.030;38.710;2023-02-28T15:44:54;3.08;;;1.70;;
74543;SDS011;63016;55.030;38.710;2023-02-28T15:47:25;3.88;;;1.58;;
74543;SDS011;63016;55.030;38.710;2023-02-28T15:50:02;3.72;;;1.52;;
74543;SDS011;63016;55.030;38.710;2023-02-28T15:55:10;3.85;;;1.70;;
74543;SDS011;63016;55.030;38.710;2023-02-28T15:57:42;3.28;;;1.42;;
74543;SDS011;63016;55.030;38.710;2023-02-28T16:00:12;4.10;;;1.77;;
74543;SDS011;63016;55.030;38.710;2023-02-28T16:02:40;5.30;;;1.92;;
74543;SDS011;63016;55.030;38.710;2023-02-28T16:07:31;3.55;;;1.65;;
74543;SDS011;63016;55.030;38.710;2023-02-28T16:09:56;3.20;;;1.50;;
74543;SDS011;63016;55.030;38.710;2023-02-28T16:12:24;3.05;;;1.63;;
74543;SDS011;63016;55.030;38.710;2023-02-28T16:14:53;3.00;;;1.63;;
74543;SDS011;63016;55.030;38.710;2023-02-28T16:17:22;3.70;;;1.90;;
74543;SDS011;63016;55.030;38.710;2023-02-28T16:19:50;4.47;;;2.13;;
74543;SDS011;63016;55.030;38.710;2023-02-28T16:22:15;5.38;;;2.15;;
74543;SDS011;63016;55.030;38.710;2023-02-28T16:24:41;4.53;;;2.38;;
74543;SDS011;63016;55.030;38.710;2023-02-28T16:27:09;4.85;;;2.08;;
74543;SDS011;63016;55.030;38.710;2023-02-28T16:29:43;6.20;;;2.17;;
74543;SDS011;63016;55.030;38.710;2023-02-28T16:32:10;4.50;;;2.08;;
74543;SDS011;63016;55.030;38.710;2023-02-28T16:34:39;5.07;;;2.28;;
74543;SDS011;63016;55.030;38.710;2023-02-28T16:37:07;5.22;;;1.85;;
74543;SDS011;63016;55.030;38.710;2023-02-28T16:39:44;5.70;;;2.35;;
74543;SDS011;63016;55.030;38.710;2023-02-28T16:42:15;5.43;;;2.35;;
74543;SDS011;63016;55.030;38.710;2023-02-28T16:44:48;7.57;;;2.88;;
74543;SDS011;63016;55.030;38.710;2023-02-28T16:47:13;5.05;;;2.22;;
74543;SDS011;63016;55.030;38.710;2023-02-28T16:49:39;4.53;;;2.30;;
74543;SDS011;63016;55.030;38.710;2023-02-28T16:52:08;5.10;;;2.40;;
74543;SDS011;63016;55.030;38.710;2023-02-28T16:54:34;6.30;;;2.70;;
74543;SDS011;63016;55.030;38.710;2023-02-28T16:57:00;7.05;;;2.35;;
74543;SDS011;63016;55.030;38.710;2023-02-28T16:59:28;5.32;;;2.60;;
74543;SDS011;63016;55.030;38.710;2023-02-28T17:01:57;6.03;;;2.78;;
74543;SDS011;63016;55.030;38.710;2023-02-28T17:04:23;6.05;;;2.67;;
74543;SDS011;63016;55.030;38.710;2023-02-28T17:06:51;7.57;;;2.70;;
74543;SDS011;63016;55.030;38.710;2023-02-28T17:09:18;6.22;;;2.60;;
74543;SDS011;63016;55.030;38.710;2023-02-28T17:11:54;6.32;;;2.78;;
74543;SDS011;63016;55.030;38.710;2023-02-28T17:14:21;6.15;;;2.60;;
74543;SDS011;63016;55.030;38.710;2023-02-28T17:16:48;4.90;;;2.50;;
74543;SDS011;63016;55.030;38.710;2023-02-28T17:19:16;4.88;;;2.70;;
74543;SDS011;63016;55.030;38.710;2023-02-28T17:21:43;6.95;;;3.03;;
74543;SDS011;63016;55.030;38.710;2023-02-28T17:24:10;6.85;;;2.90;;
74543;SDS011;63016;55.030;38.710;2023-02-28T17:26:37;6.03;;;3.10;;
74543;SDS011;63016;55.030;38.710;2023-02-28T17:29:15;5.82;;;2.60;;
74543;SDS011;63016;55.030;38.710;2023-02-28T17:31:43;7.07;;;2.90;;
74543;SDS011;63016;55.030;38.710;2023-02-28T17:34:08;5.95;;;2.72;;
74543;SDS011;63016;55.030;38.710;2023-02-28T17:36:35;6.07;;;3.00;;
74543;SDS011;63016;55.030;38.710;2023-02-28T17:39:02;5.57;;;2.17;;
74543;SDS011;63016;55.030;38.710;2023-02-28T17:41:30;4.97;;;2.55;;
74543;SDS011;63016;55.030;38.710;2023-02-28T17:43:56;5.97;;;2.83;;
74543;SDS011;63016;55.030;38.710;2023-02-28T17:46:22;4.93;;;2.53;;
74543;SDS011;63016;55.030;38.710;2023-02-28T17:48:50;5.53;;;2.60;;